createdAt,value
2019-02-18T00:01:18.894Z,13.03
2019-02-18T00:03:47.462Z,12.67
2019-02-18T00:06:16.068Z,12.60
2019-02-18T00:08:46.066Z,13.07
2019-02-18T00:11:15.796Z,13.07
2019-02-18T00:13:44.373Z,12.23
2019-02-18T00:16:15.907Z,12.65
2019-02-18T00:18:44.712Z,12.20
2019-02-18T00:21:13.308Z,13.03
2019-02-18T00:24:01.156Z,12.50
2019-02-18T00:26:30.444Z,13.57
2019-02-18T00:28:58.971Z,12.03
2019-02-18T00:31:27.464Z,13.23
2019-02-18T00:34:04.399Z,14.43
2019-02-18T00:36:36.430Z,13.33
2019-02-18T00:39:08.502Z,13.50
2019-02-18T00:41:37.023Z,13.83
2019-02-18T00:44:09.012Z,14.03
2019-02-18T00:46:37.528Z,14.03
2019-02-18T00:49:07.530Z,13.10
2019-02-18T00:51:37.431Z,12.50
2019-02-18T00:54:08.773Z,14.83
2019-02-18T00:56:37.270Z,13.13
2019-02-18T00:59:07.375Z,13.17
2019-02-18T01:01:35.937Z,13.30
2019-02-18T01:04:04.755Z,15.23
2019-02-18T01:06:33.247Z,13.87
2019-02-18T01:09:01.819Z,13.80
2019-02-18T01:11:31.795Z,14.37
2019-02-18T01:14:00.395Z,13.50
2019-02-18T01:16:33.259Z,14.27
2019-02-18T01:19:01.885Z,13.57
2019-02-18T01:21:32.073Z,14.07
2019-02-18T01:24:00.581Z,14.05
2019-02-18T01:26:30.049Z,14.20
2019-02-18T01:29:04.139Z,13.87
2019-02-18T01:31:38.677Z,14.13
2019-02-18T01:34:08.653Z,13.70
2019-02-18T01:36:39.021Z,14.47
2019-02-18T01:39:07.516Z,14.30
2019-02-18T01:41:36.209Z,14.18
2019-02-18T01:44:04.977Z,14.97
2019-02-18T01:46:34.677Z,15.83
2019-02-18T01:49:06.961Z,14.10
2019-02-18T01:51:35.551Z,13.97
2019-02-18T01:54:04.257Z,14.47
2019-02-18T01:56:36.697Z,14.40
2019-02-18T01:59:05.167Z,14.40
2019-02-18T02:01:33.804Z,14.77
2019-02-18T02:04:06.608Z,15.00
2019-02-18T02:06:35.067Z,14.77
2019-02-18T02:09:06.373Z,13.73
2019-02-18T02:11:41.845Z,14.23
2019-02-18T02:14:10.559Z,14.90
2019-02-18T02:16:44.520Z,14.70
2019-02-18T02:19:16.005Z,13.87
2019-02-18T02:21:50.011Z,14.10
2019-02-18T02:24:18.765Z,14.17
2019-02-18T02:26:53.255Z,14.67
2019-02-18T02:29:30.604Z,14.70
2019-02-18T02:32:02.506Z,14.55
2019-02-18T02:34:31.127Z,14.17
2019-02-18T02:37:01.457Z,14.13
2019-02-18T02:39:30.109Z,14.77
2019-02-18T02:42:01.937Z,14.40
2019-02-18T02:44:31.905Z,15.50
2019-02-18T02:47:02.103Z,15.93
2019-02-18T02:49:32.774Z,13.70
2019-02-18T02:52:02.216Z,14.47
2019-02-18T02:54:38.269Z,16.83
2019-02-18T02:57:07.952Z,15.30
2019-02-18T02:59:36.662Z,15.03
2019-02-18T03:02:05.362Z,16.17
2019-02-18T03:04:35.450Z,14.98
2019-02-18T03:07:06.252Z,15.43
2019-02-18T03:09:37.566Z,15.13
2019-02-18T03:12:06.136Z,14.57
2019-02-18T03:14:36.089Z,15.43
2019-02-18T03:17:04.781Z,14.43
2019-02-18T03:19:34.244Z,14.63
2019-02-18T03:22:04.462Z,14.63
2019-02-18T03:24:34.596Z,14.53
2019-02-18T03:27:03.197Z,14.70
2019-02-18T03:29:57.648Z,14.83
2019-02-18T03:32:26.194Z,14.00
2019-02-18T03:34:55.157Z,14.40
2019-02-18T03:37:25.299Z,14.73
2019-02-18T03:39:53.908Z,14.07
2019-02-18T03:42:24.572Z,14.05
2019-02-18T03:44:59.464Z,14.03
2019-02-18T03:47:29.547Z,14.10
2019-02-18T03:49:58.201Z,13.63
2019-02-18T03:52:26.695Z,14.10
2019-02-18T03:54:59.585Z,13.58
2019-02-18T03:57:28.310Z,14.40
2019-02-18T03:59:56.882Z,14.60
2019-02-18T04:02:27.360Z,14.47
2019-02-18T04:04:57.895Z,14.90
2019-02-18T04:07:26.593Z,15.17
2019-02-18T04:09:56.601Z,14.13
2019-02-18T04:12:26.705Z,14.23
2019-02-18T04:14:56.228Z,15.13
2019-02-18T04:17:24.751Z,14.90
2019-02-18T04:19:57.259Z,15.37
2019-02-18T04:22:27.406Z,13.80
2019-02-18T04:24:56.867Z,14.47
2019-02-18T04:27:29.759Z,14.37
2019-02-18T04:29:58.321Z,14.98
2019-02-18T04:32:26.832Z,14.23
2019-02-18T04:34:55.345Z,14.77
2019-02-18T04:37:26.575Z,14.23
2019-02-18T04:39:56.603Z,14.60
2019-02-18T04:42:27.811Z,14.63
2019-02-18T04:44:58.213Z,13.67
2019-02-18T04:47:32.000Z,13.53
2019-02-18T04:50:00.515Z,15.45
2019-02-18T04:52:37.439Z,14.47
2019-02-18T04:55:09.952Z,12.83
2019-02-18T04:57:38.507Z,13.63
2019-02-18T05:00:10.381Z,16.45
2019-02-18T05:02:45.353Z,14.47
2019-02-18T05:05:15.883Z,14.23
2019-02-18T05:07:46.461Z,13.33
2019-02-18T05:10:16.207Z,13.13
2019-02-18T05:12:44.798Z,12.50
2019-02-18T05:15:17.537Z,14.20
2019-02-18T05:17:47.605Z,13.67
2019-02-18T05:20:16.108Z,13.03
2019-02-18T05:22:44.980Z,13.37
2019-02-18T05:25:13.572Z,11.93
2019-02-18T05:27:42.155Z,12.10
2019-02-18T05:30:12.422Z,11.70
2019-02-18T05:32:44.029Z,11.57
2019-02-18T05:35:15.153Z,12.57
2019-02-18T05:37:48.033Z,11.77
2019-02-18T05:40:15.454Z,12.90
2019-02-18T05:42:46.783Z,11.30
2019-02-18T05:45:15.318Z,11.83
2019-02-18T05:47:46.663Z,12.18
2019-02-18T05:50:15.238Z,14.28
2019-02-18T05:52:43.716Z,12.47
2019-02-18T05:55:13.279Z,11.63
2019-02-18T05:57:41.941Z,11.67
2019-02-18T06:00:13.222Z,11.00
2019-02-18T06:02:42.177Z,10.80
2019-02-18T06:05:12.283Z,10.40
2019-02-18T06:07:42.668Z,11.00
2019-02-18T06:10:13.939Z,10.57
2019-02-18T06:12:48.912Z,11.50
2019-02-18T06:15:21.483Z,10.90
2019-02-18T06:17:50.930Z,10.97
2019-02-18T06:20:23.948Z,11.03
2019-02-18T06:22:55.239Z,10.07
2019-02-18T06:25:23.761Z,9.63
2019-02-18T06:27:56.369Z,10.23
2019-02-18T06:30:26.748Z,9.20
2019-02-18T06:33:01.227Z,10.37
2019-02-18T06:35:31.219Z,10.43
2019-02-18T06:38:02.761Z,9.60
2019-02-18T06:40:31.296Z,10.20
2019-02-18T06:43:05.715Z,9.80
2019-02-18T06:45:52.848Z,9.03
2019-02-18T06:48:40.789Z,9.23
2019-02-18T06:51:17.083Z,10.03
2019-02-18T06:53:48.512Z,9.30
2019-02-18T06:56:18.654Z,9.80
2019-02-18T06:58:57.736Z,11.33
2019-02-18T07:01:36.340Z,10.13
2019-02-18T07:04:12.354Z,10.40
2019-02-18T07:06:42.453Z,9.93
2019-02-18T07:09:12.582Z,10.10
2019-02-18T07:11:46.770Z,9.60
2019-02-18T07:14:15.320Z,10.30
2019-02-18T07:16:45.054Z,9.70
2019-02-18T07:19:13.540Z,10.10
2019-02-18T07:21:45.872Z,10.07
2019-02-18T07:24:21.839Z,9.43
2019-02-18T07:26:56.754Z,10.33
2019-02-18T07:29:25.348Z,10.28
2019-02-18T07:31:55.332Z,9.73
2019-02-18T07:34:26.804Z,9.53
2019-02-18T07:37:14.734Z,9.47
2019-02-18T07:39:47.838Z,9.67
2019-02-18T07:42:17.515Z,9.05
2019-02-18T07:44:46.049Z,10.40
2019-02-18T07:47:16.927Z,9.50
2019-02-18T07:49:45.409Z,9.68
2019-02-18T07:52:17.549Z,9.60
2019-02-18T07:54:47.396Z,9.63
2019-02-18T07:57:15.907Z,8.83
2019-02-18T07:59:44.357Z,9.07
2019-02-18T08:02:17.031Z,9.70
2019-02-18T08:04:49.657Z,9.90
2019-02-18T08:07:28.051Z,9.60
2019-02-18T08:09:56.555Z,9.60
2019-02-18T08:12:25.019Z,9.25
2019-02-18T08:15:00.325Z,8.00
2019-02-18T08:17:28.813Z,9.03
2019-02-18T08:19:59.951Z,9.15
2019-02-18T08:22:28.449Z,9.70
2019-02-18T08:24:59.859Z,8.87
2019-02-18T08:27:29.885Z,10.37
2019-02-18T08:29:59.925Z,9.53
2019-02-18T08:32:32.589Z,9.70
2019-02-18T08:35:01.077Z,8.83
2019-02-18T08:37:33.341Z,9.13
2019-02-18T08:40:05.905Z,8.97
2019-02-18T08:42:34.597Z,8.63
2019-02-18T08:45:03.370Z,8.63
2019-02-18T08:47:31.939Z,9.80
2019-02-18T08:50:01.062Z,10.00
2019-02-18T08:52:29.527Z,10.17
2019-02-18T08:55:02.784Z,9.00
2019-02-18T08:57:30.977Z,9.60
2019-02-18T08:59:59.471Z,8.93
2019-02-18T09:02:28.883Z,9.00
2019-02-18T09:04:57.515Z,10.17
2019-02-18T09:07:28.752Z,9.13
2019-02-18T09:10:04.543Z,9.97
2019-02-18T09:12:34.541Z,9.63
2019-02-18T09:15:08.853Z,9.20
2019-02-18T09:17:39.983Z,9.37
2019-02-18T09:20:11.702Z,9.33
2019-02-18T09:22:41.936Z,9.65
2019-02-18T09:25:13.907Z,9.60
2019-02-18T09:27:42.639Z,9.57
2019-02-18T09:30:14.697Z,9.90
2019-02-18T09:32:43.432Z,10.43
2019-02-18T09:35:13.869Z,9.73
2019-02-18T09:37:42.110Z,9.97
2019-02-18T09:40:14.169Z,10.17
2019-02-18T09:42:45.100Z,9.67
2019-02-18T09:45:14.991Z,9.33
2019-02-18T09:47:47.287Z,10.43
2019-02-18T09:50:15.897Z,10.03
2019-02-18T09:52:44.407Z,9.97
2019-02-18T09:55:14.511Z,10.40
2019-02-18T09:57:43.009Z,10.03
2019-02-18T10:00:34.725Z,11.33
2019-02-18T10:03:05.411Z,9.80
2019-02-18T10:05:34.985Z,10.37
2019-02-18T10:08:09.138Z,10.47
2019-02-18T10:10:37.701Z,10.83
2019-02-18T10:13:06.390Z,10.60
2019-02-18T10:15:34.984Z,10.97
2019-02-18T10:18:03.616Z,11.27
2019-02-18T10:20:32.152Z,10.83
2019-02-18T10:23:05.914Z,10.98
2019-02-18T10:25:38.255Z,11.00
2019-02-18T10:28:06.884Z,11.12
2019-02-18T10:30:41.356Z,10.73
2019-02-18T10:33:10.891Z,11.33
2019-02-18T10:35:39.446Z,10.77
2019-02-18T10:38:07.940Z,11.78
2019-02-18T10:40:36.459Z,12.07
2019-02-18T10:43:06.644Z,10.97
2019-02-18T10:45:37.552Z,11.37
2019-02-18T10:48:08.951Z,10.93
2019-02-18T10:50:37.517Z,12.33
2019-02-18T10:53:06.052Z,11.30
2019-02-18T10:55:34.858Z,11.57
2019-02-18T10:58:06.743Z,11.70
2019-02-18T11:00:37.696Z,11.63
2019-02-18T11:04:24.204Z,11.63
2019-02-18T11:06:52.771Z,11.73
2019-02-18T11:09:21.306Z,11.63
2019-02-18T11:11:49.982Z,11.27
2019-02-18T11:14:19.657Z,12.03
2019-02-18T11:16:53.030Z,12.17
2019-02-18T11:19:22.810Z,11.83
2019-02-18T11:21:54.274Z,11.00
2019-02-18T11:24:22.820Z,11.40
2019-02-18T11:26:53.228Z,12.27
2019-02-18T11:29:21.771Z,11.17
2019-02-18T11:31:51.778Z,11.35
2019-02-18T11:34:25.114Z,11.30
2019-02-18T11:36:55.201Z,11.87
2019-02-18T11:39:27.596Z,11.37
2019-02-18T11:41:56.354Z,11.37
2019-02-18T11:44:24.911Z,12.40
2019-02-18T11:46:53.492Z,11.80
2019-02-18T11:49:23.215Z,12.30
2019-02-18T11:51:51.773Z,12.40
2019-02-18T11:54:22.220Z,12.47
2019-02-18T11:56:50.842Z,11.67
2019-02-18T11:59:24.518Z,12.95
2019-02-18T12:01:54.716Z,13.00
2019-02-18T12:04:29.391Z,12.50
2019-02-18T12:06:58.143Z,12.73
2019-02-18T12:09:29.237Z,12.70
2019-02-18T12:12:01.884Z,12.27
2019-02-18T12:14:31.603Z,12.73
2019-02-18T12:17:20.836Z,12.67
2019-02-18T12:19:50.709Z,13.60
2019-02-18T12:22:20.841Z,12.40
2019-02-18T12:24:52.031Z,13.45
2019-02-18T12:27:20.842Z,13.73
2019-02-18T12:29:53.399Z,13.23
2019-02-18T12:32:26.407Z,13.10
2019-02-18T12:35:04.200Z,13.63
2019-02-18T12:37:40.835Z,12.27
2019-02-18T12:40:14.025Z,12.80
2019-02-18T12:42:44.921Z,12.20
2019-02-18T12:45:13.887Z,12.43
2019-02-18T12:47:42.658Z,12.40
2019-02-18T12:50:13.839Z,12.63
2019-02-18T12:52:47.140Z,11.95
2019-02-18T12:55:18.143Z,11.43
2019-02-18T12:57:46.887Z,11.30
2019-02-18T13:00:18.988Z,11.23
2019-02-18T13:02:47.878Z,11.63
2019-02-18T13:05:17.881Z,11.47
2019-02-18T13:07:46.514Z,10.83
2019-02-18T13:10:16.737Z,11.93
2019-02-18T13:12:45.710Z,11.00
2019-02-18T13:15:18.435Z,11.77
2019-02-18T13:17:52.572Z,10.40
2019-02-18T13:23:10.470Z,12.37
2019-02-18T13:25:47.412Z,11.17
2019-02-18T13:28:14.354Z,11.97
2019-02-18T13:30:48.690Z,11.27
2019-02-18T13:33:20.398Z,12.03
2019-02-18T13:35:54.654Z,12.40
2019-02-18T13:38:24.774Z,11.70
2019-02-18T13:40:53.436Z,12.10
2019-02-18T13:43:22.050Z,11.22
2019-02-18T13:45:50.622Z,11.67
2019-02-18T13:48:22.134Z,11.73
2019-02-18T13:50:59.974Z,12.43
2019-02-18T13:53:31.114Z,12.33
2019-02-18T13:56:03.004Z,12.23
2019-02-18T13:58:33.205Z,11.77
2019-02-18T14:01:02.006Z,11.80
2019-02-18T14:03:31.822Z,11.43
2019-02-18T14:06:05.360Z,11.40
2019-02-18T14:08:35.643Z,10.70
2019-02-18T14:11:07.210Z,11.73
2019-02-18T14:13:35.750Z,10.97
2019-02-18T14:16:07.126Z,10.30
2019-02-18T14:18:37.329Z,10.40
2019-02-18T14:21:11.070Z,10.50
2019-02-18T14:23:39.906Z,9.53
2019-02-18T14:26:10.456Z,9.40
2019-02-18T14:28:39.454Z,9.70
2019-02-18T14:31:10.436Z,9.70
2019-02-18T14:33:38.958Z,9.37
2019-02-18T14:36:08.453Z,8.73
2019-02-18T14:38:36.959Z,8.50
2019-02-18T14:41:07.160Z,8.17
2019-02-18T14:43:36.233Z,7.40
2019-02-18T14:46:06.546Z,8.43
2019-02-18T14:48:35.161Z,7.73
2019-02-18T14:51:06.224Z,7.63
2019-02-18T14:53:36.396Z,7.72
2019-02-18T14:56:07.403Z,7.83
2019-02-18T14:58:37.698Z,9.90
2019-02-18T15:01:08.024Z,14.87
2019-02-18T15:03:40.294Z,8.87
2019-02-18T15:06:08.850Z,7.90
2019-02-18T15:08:37.484Z,8.10
2019-02-18T15:11:06.521Z,7.43
2019-02-18T15:13:36.084Z,7.87
2019-02-18T15:16:09.649Z,6.83
2019-02-18T15:18:38.308Z,8.05
2019-02-18T15:21:09.966Z,8.27
2019-02-18T15:23:39.860Z,7.00
2019-02-18T15:26:09.171Z,7.40
2019-02-18T15:28:40.627Z,8.10
2019-02-18T15:31:10.283Z,7.87
2019-02-18T15:33:44.975Z,7.27
2019-02-18T15:36:13.603Z,7.50
2019-02-18T15:38:44.535Z,7.43
2019-02-18T15:41:13.195Z,7.93
2019-02-18T15:43:43.459Z,7.63
2019-02-18T15:46:12.170Z,7.97
2019-02-18T15:48:43.572Z,7.10
2019-02-18T15:51:14.570Z,7.40
2019-02-18T15:53:44.275Z,7.85
2019-02-18T15:56:12.799Z,7.90
2019-02-18T15:58:41.349Z,7.70
2019-02-18T16:01:17.530Z,7.37
2019-02-18T16:03:46.125Z,7.57
2019-02-18T16:06:14.893Z,7.90
2019-02-18T16:08:45.605Z,7.47
2019-02-18T16:11:17.222Z,8.25
2019-02-18T16:13:45.866Z,8.93
2019-02-18T16:16:14.444Z,8.53
2019-02-18T16:18:45.622Z,7.90
2019-02-18T16:21:16.318Z,8.10
2019-02-18T16:23:46.830Z,8.20
2019-02-18T16:26:15.374Z,8.13
2019-02-18T16:28:50.093Z,8.70
2019-02-18T16:31:23.038Z,8.30
2019-02-18T16:33:58.402Z,9.63
2019-02-18T16:36:28.243Z,9.13
2019-02-18T16:38:57.229Z,8.63
2019-02-18T16:41:26.705Z,9.20
2019-02-18T16:43:55.422Z,10.20
2019-02-18T16:46:26.982Z,9.00
2019-02-18T16:48:55.858Z,10.67
2019-02-18T16:51:28.453Z,11.70
2019-02-18T16:53:57.095Z,10.97
2019-02-18T16:56:25.674Z,11.15
2019-02-18T16:58:54.276Z,11.43
2019-02-18T17:01:23.386Z,11.67
2019-02-18T17:03:52.900Z,11.17
2019-02-18T17:06:23.115Z,10.30
2019-02-18T17:08:51.722Z,10.93
2019-02-18T17:11:20.299Z,10.53
2019-02-18T17:13:50.050Z,11.77
2019-02-18T17:16:20.808Z,10.73
2019-02-18T17:18:50.444Z,12.17
2019-02-18T17:21:19.932Z,10.60
2019-02-18T17:23:54.790Z,10.53
2019-02-18T17:26:24.428Z,10.57
2019-02-18T17:28:54.914Z,10.67
2019-02-18T17:31:23.389Z,10.97
2019-02-18T17:33:51.932Z,10.00
2019-02-18T17:36:21.694Z,11.30
2019-02-18T17:38:50.396Z,11.33
2019-02-18T17:41:22.193Z,11.28
2019-02-18T17:43:51.403Z,11.50
2019-02-18T17:46:20.996Z,13.40
2019-02-18T17:48:51.295Z,13.00
2019-02-18T17:51:22.874Z,12.73
2019-02-18T17:53:51.726Z,12.80
2019-02-18T17:56:20.319Z,13.27
2019-02-18T17:58:53.100Z,12.63
2019-02-18T18:01:28.776Z,12.73
2019-02-18T18:03:58.512Z,13.57
2019-02-18T18:06:28.762Z,12.57
2019-02-18T18:08:58.393Z,12.20
2019-02-18T18:11:27.439Z,12.80
2019-02-18T18:13:56.049Z,12.80
2019-02-18T18:16:28.163Z,12.90
2019-02-18T18:18:56.863Z,13.87
2019-02-18T18:21:26.936Z,14.87
2019-02-18T18:23:57.938Z,15.97
2019-02-18T18:26:26.574Z,15.50
2019-02-18T18:28:57.446Z,16.10
2019-02-18T18:31:27.080Z,15.98
2019-02-18T18:33:56.484Z,14.63
2019-02-18T18:36:24.962Z,15.33
2019-02-18T18:38:54.273Z,16.27
2019-02-18T18:41:25.783Z,14.80
2019-02-18T18:43:57.601Z,15.70
2019-02-18T18:46:26.311Z,16.27
2019-02-18T18:48:59.199Z,16.27
2019-02-18T18:51:33.854Z,14.87
2019-02-18T18:54:02.556Z,15.53
2019-02-18T18:56:32.498Z,14.20
2019-02-18T18:59:04.911Z,14.70
2019-02-18T19:01:33.651Z,14.93
2019-02-18T19:04:02.208Z,13.57
2019-02-18T19:06:30.967Z,13.80
2019-02-18T19:09:00.923Z,13.07
2019-02-18T19:11:30.785Z,12.83
2019-02-18T19:14:01.417Z,13.83
2019-02-18T19:16:30.123Z,14.43
2019-02-18T19:19:00.244Z,13.43
2019-02-18T19:21:32.567Z,13.50
2019-02-18T19:24:01.463Z,13.60
2019-02-18T19:26:31.194Z,13.03
2019-02-18T19:28:59.713Z,13.93
2019-02-18T19:31:29.507Z,13.83
2019-02-18T19:33:58.299Z,13.47
2019-02-18T19:36:29.905Z,13.10
2019-02-18T19:38:59.852Z,12.85
2019-02-18T19:41:30.307Z,12.13
2019-02-18T19:43:59.881Z,13.23
2019-02-18T19:46:28.685Z,11.67
2019-02-18T19:48:57.767Z,11.67
2019-02-18T19:51:26.454Z,11.67
2019-02-18T19:53:56.257Z,12.07
2019-02-18T19:56:26.328Z,11.90
2019-02-18T19:58:56.348Z,9.40
2019-02-18T20:01:34.922Z,10.13
2019-02-18T20:04:06.262Z,10.47
2019-02-18T20:06:43.919Z,10.30
2019-02-18T20:09:14.102Z,10.00
2019-02-18T20:11:44.596Z,9.90
2019-02-18T20:14:15.449Z,9.80
2019-02-18T20:16:50.066Z,10.27
2019-02-18T20:19:18.747Z,9.27
2019-02-18T20:21:49.944Z,9.23
2019-02-18T20:24:18.878Z,9.70
2019-02-18T20:26:48.595Z,10.60
2019-02-18T20:29:17.112Z,10.20
2019-02-18T20:31:45.696Z,9.17
2019-02-18T20:34:16.679Z,9.60
2019-02-18T20:36:47.662Z,10.30
2019-02-18T20:39:16.498Z,10.60
2019-02-18T20:41:46.024Z,9.30
2019-02-18T20:44:14.537Z,9.33
2019-02-18T20:46:46.127Z,9.70
2019-02-18T20:49:17.693Z,9.97
2019-02-18T20:51:47.040Z,9.03
2019-02-18T20:54:19.778Z,10.00
2019-02-18T20:56:48.276Z,10.20
2019-02-18T20:59:16.830Z,9.90
2019-02-18T21:01:48.251Z,9.98
2019-02-18T21:04:21.195Z,10.10
2019-02-18T21:06:52.468Z,10.37
2019-02-18T21:09:23.122Z,9.70
2019-02-18T21:11:54.516Z,10.73
2019-02-18T21:14:23.106Z,10.30
2019-02-18T21:16:52.981Z,10.50
2019-02-18T21:19:22.669Z,9.83
2019-02-18T21:21:57.148Z,9.50
2019-02-18T21:24:30.199Z,11.07
2019-02-18T21:27:01.984Z,10.87
2019-02-18T21:29:31.971Z,10.77
2019-02-18T21:32:03.673Z,10.17
2019-02-18T21:34:33.173Z,10.47
2019-02-18T21:37:01.693Z,10.57
2019-02-18T21:39:31.788Z,10.17
2019-02-18T21:42:00.333Z,10.37
2019-02-18T21:44:28.862Z,10.47
2019-02-18T21:46:58.349Z,11.03
2019-02-18T21:49:28.495Z,11.03
2019-02-18T21:51:57.030Z,10.63
2019-02-18T21:54:25.556Z,9.50
2019-02-18T21:56:54.951Z,10.38
2019-02-18T21:59:23.477Z,10.87
2019-02-18T22:01:52.205Z,9.90
2019-02-18T22:04:21.585Z,11.43
2019-02-18T22:06:56.283Z,10.60
2019-02-18T22:09:27.837Z,11.47
2019-02-18T22:11:56.291Z,10.50
2019-02-18T22:14:33.276Z,10.98
2019-02-18T22:17:00.819Z,11.03
2019-02-18T22:19:29.283Z,10.90
2019-02-18T22:21:58.872Z,11.20
2019-02-18T22:24:27.413Z,11.53
2019-02-18T22:27:00.203Z,10.20
2019-02-18T22:29:29.339Z,11.60
2019-02-18T22:31:58.065Z,10.60
2019-02-18T22:34:27.419Z,11.20
2019-02-18T22:36:58.980Z,11.23
2019-02-18T22:39:27.563Z,11.27
2019-02-18T22:41:59.732Z,11.20
2019-02-18T22:44:31.215Z,10.90
2019-02-18T22:46:59.668Z,11.03
2019-02-18T22:49:28.363Z,12.13
2019-02-18T22:51:58.417Z,11.63
2019-02-18T22:54:29.454Z,11.50
2019-02-18T22:56:58.000Z,11.25
2019-02-18T22:59:29.802Z,11.37
2019-02-18T23:01:58.381Z,11.85
2019-02-18T23:04:31.005Z,11.27
2019-02-18T23:07:00.388Z,11.40
2019-02-18T23:09:29.059Z,12.43
2019-02-18T23:12:02.264Z,11.57
2019-02-18T23:14:33.453Z,11.17
2019-02-18T23:17:02.132Z,12.27
2019-02-18T23:19:30.754Z,11.67
2019-02-18T23:21:59.608Z,11.77
2019-02-18T23:24:32.474Z,12.03
2019-02-18T23:27:01.003Z,12.00
2019-02-18T23:29:33.124Z,12.10
2019-02-18T23:32:01.662Z,11.90
2019-02-18T23:34:32.884Z,12.93
2019-02-18T23:37:01.458Z,13.13
2019-02-18T23:39:30.192Z,12.95
2019-02-18T23:41:58.658Z,12.17
2019-02-18T23:44:27.513Z,13.07
2019-02-18T23:46:56.046Z,12.83
2019-02-18T23:49:24.536Z,12.70
2019-02-18T23:51:53.040Z,12.23
2019-02-18T23:54:21.539Z,12.57
2019-02-18T23:56:50.079Z,12.80
2019-02-18T23:59:18.582Z,13.08
